createdAt,value
2023-03-08T00:02:52.790Z,99.90
2023-03-08T00:07:55.699Z,99.90
2023-03-08T00:12:58.043Z,99.90
2023-03-08T00:18:00.366Z,99.90
2023-03-08T00:23:03.188Z,99.90
2023-03-08T00:28:05.592Z,99.90
2023-03-08T00:33:07.917Z,99.90
2023-03-08T00:38:10.302Z,99.90
2023-03-08T00:43:13.783Z,99.90
2023-03-08T00:48:16.370Z,99.90
2023-03-08T00:53:19.323Z,99.90
2023-03-08T00:58:25.696Z,99.90
2023-03-08T01:03:28.182Z,99.90
2023-03-08T01:08:31.268Z,99.90
2023-03-08T01:13:35.530Z,99.90
2023-03-08T01:18:38.014Z,99.90
2023-03-08T01:23:42.526Z,99.90
2023-03-08T01:28:45.518Z,99.90
2023-03-08T01:33:48.299Z,99.90
2023-03-08T01:38:51.286Z,99.90
2023-03-08T01:43:54.262Z,99.90
2023-03-08T01:49:08.133Z,99.90
2023-03-08T01:54:26.814Z,99.90
2023-03-08T01:59:33.117Z,99.90
2023-03-08T02:04:36.052Z,99.90
2023-03-08T02:09:38.563Z,99.90
2023-03-08T02:14:44.837Z,99.90
2023-03-08T02:19:59.604Z,99.90
2023-03-08T02:25:02.340Z,99.90
2023-03-08T02:30:05.009Z,99.90
2023-03-08T02:35:08.531Z,99.90
2023-03-08T02:40:14.169Z,99.90
2023-03-08T02:45:16.604Z,99.90
2023-03-08T02:50:19.095Z,99.90
2023-03-08T02:55:21.751Z,99.90
2023-03-08T03:00:24.357Z,99.90
2023-03-08T03:05:26.849Z,99.90
2023-03-08T03:10:30.234Z,99.90
2023-03-08T03:15:33.442Z,99.90
2023-03-08T03:20:36.501Z,99.90
2023-03-08T03:25:38.870Z,99.90
2023-03-08T03:30:44.405Z,99.90
2023-03-08T03:35:49.252Z,99.90
2023-03-08T03:41:03.876Z,99.90
2023-03-08T03:46:10.779Z,99.90
2023-03-08T03:51:17.229Z,99.90
2023-03-08T03:56:25.665Z,99.90
2023-03-08T04:01:31.870Z,99.90
2023-03-08T04:06:40.882Z,99.90
2023-03-08T04:11:44.641Z,99.90
2023-03-08T04:16:51.982Z,99.90
2023-03-08T04:22:07.005Z,99.90
2023-03-08T04:27:17.381Z,99.90
2023-03-08T04:32:19.988Z,99.90
2023-03-08T04:37:30.701Z,99.90
2023-03-08T04:42:41.001Z,99.90
2023-03-08T04:47:48.334Z,99.90
2023-03-08T04:52:50.979Z,99.90
2023-03-08T04:57:53.663Z,99.90
2023-03-08T05:02:56.653Z,99.90
2023-03-08T05:08:04.247Z,99.90
2023-03-08T05:13:08.839Z,99.90
2023-03-08T05:18:11.710Z,99.90
2023-03-08T05:23:14.616Z,99.90
2023-03-08T05:28:17.997Z,99.90
2023-03-08T05:33:22.136Z,99.90
2023-03-08T05:38:26.149Z,99.90
2023-03-08T05:43:29.346Z,99.90
2023-03-08T05:48:33.163Z,99.90
2023-03-08T05:53:36.231Z,99.90
2023-03-08T05:58:43.081Z,99.90
2023-03-08T06:03:49.516Z,99.90
2023-03-08T06:08:54.063Z,99.90
2023-03-08T06:13:56.616Z,99.90
2023-03-08T06:19:02.709Z,99.90
2023-03-08T06:24:06.692Z,99.90
2023-03-08T06:29:09.212Z,99.90
2023-03-08T06:34:12.851Z,99.90
2023-03-08T06:39:15.913Z,99.90
2023-03-08T06:44:18.581Z,99.90
2023-03-08T06:49:21.617Z,99.90
2023-03-08T06:54:24.347Z,99.90
2023-03-08T06:59:27.005Z,99.90
2023-03-08T07:04:29.427Z,99.90
2023-03-08T07:09:31.822Z,99.90
2023-03-08T07:14:34.213Z,99.90
2023-03-08T07:19:36.668Z,99.90
2023-03-08T07:24:39.475Z,99.90
2023-03-08T07:29:41.911Z,96.50
2023-03-08T07:34:45.131Z,92.90
2023-03-08T07:39:47.462Z,86.20
2023-03-08T07:44:49.920Z,73.90
2023-03-08T07:49:52.203Z,58.10
2023-03-08T07:54:54.968Z,47.60
2023-03-08T07:59:57.379Z,36.70
2023-03-08T08:05:00.083Z,9.10
2023-03-08T08:10:03.863Z,17.40
2023-03-08T08:15:06.803Z,25.90
2023-03-08T08:20:10.088Z,1.00
2023-03-08T08:25:12.511Z,1.00
2023-03-08T08:30:15.793Z,1.00
2023-03-08T08:35:18.182Z,1.00
2023-03-08T08:40:20.507Z,1.00
2023-03-08T08:45:22.813Z,1.00
2023-03-08T08:50:25.186Z,1.00
2023-03-08T08:55:27.474Z,1.00
2023-03-08T09:00:30.268Z,1.00
2023-03-08T09:05:37.585Z,1.00
2023-03-08T09:10:41.009Z,1.00
2023-03-08T09:15:43.476Z,1.00
2023-03-08T09:20:45.780Z,1.00
2023-03-08T09:25:56.540Z,1.00
2023-03-08T09:30:59.145Z,99.90
2023-03-08T09:36:01.623Z,1.00
2023-03-08T09:41:19.315Z,1.00
2023-03-08T09:46:35.884Z,99.90
2023-03-08T09:51:40.996Z,1.00
2023-03-08T09:56:48.270Z,17.40
2023-03-08T10:02:04.776Z,1.00
2023-03-08T10:07:39.149Z,1.00
2023-03-08T10:12:59.008Z,7.50
2023-03-08T10:18:13.338Z,1.00
2023-03-08T10:23:20.884Z,1.00
2023-03-08T10:28:28.939Z,1.00
2023-03-08T10:33:36.113Z,99.90
2023-03-08T10:38:39.270Z,1.00
2023-03-08T10:43:48.688Z,99.20
2023-03-08T10:48:51.738Z,99.90
2023-03-08T10:53:58.153Z,1.00
2023-03-08T10:59:00.765Z,1.00
2023-03-08T11:04:06.608Z,1.00
2023-03-08T11:09:32.065Z,99.90
2023-03-08T11:14:34.550Z,1.00
2023-03-08T11:19:39.605Z,1.00
2023-03-08T11:25:09.839Z,62.00
2023-03-08T11:30:49.861Z,99.90
2023-03-08T11:36:13.403Z,1.00
2023-03-08T11:41:38.937Z,1.00
2023-03-08T11:46:53.484Z,1.00
2023-03-08T11:52:09.922Z,1.00
2023-03-08T11:57:17.668Z,1.00
2023-03-08T12:02:24.659Z,1.00
2023-03-08T12:07:36.947Z,1.00
2023-03-08T12:12:54.671Z,1.00
2023-03-08T12:18:18.304Z,99.90
2023-03-08T12:23:25.950Z,1.00
2023-03-08T12:28:36.600Z,4.80
2023-03-08T12:33:39.275Z,1.00
2023-03-08T12:38:45.796Z,99.90
2023-03-08T12:44:02.745Z,1.00
2023-03-08T12:49:18.397Z,1.00
2023-03-08T12:54:23.536Z,1.00
2023-03-08T12:59:32.117Z,1.00
2023-03-08T13:04:41.377Z,1.00
2023-03-08T13:09:47.074Z,1.00
2023-03-08T13:15:18.601Z,1.00
2023-03-08T13:20:53.385Z,1.00
2023-03-08T13:26:19.512Z,3.40
2023-03-08T13:31:30.617Z,99.90
2023-03-08T13:36:34.188Z,1.00
2023-03-08T13:41:41.384Z,1.00
2023-03-08T13:46:44.613Z,1.00
2023-03-08T13:51:50.574Z,1.00
2023-03-08T13:56:54.241Z,99.90
2023-03-08T14:01:57.470Z,99.90
2023-03-08T14:07:01.199Z,99.90
2023-03-08T14:12:05.929Z,99.90
2023-03-08T14:17:20.701Z,99.90
2023-03-08T14:22:38.195Z,1.00
2023-03-08T14:27:42.876Z,1.00
2023-03-08T14:32:59.509Z,1.00
2023-03-08T14:38:02.497Z,1.00
2023-03-08T14:43:16.353Z,99.90
2023-03-08T14:48:32.148Z,1.00
2023-03-08T14:53:36.363Z,47.60
2023-03-08T14:58:43.300Z,1.00
2023-03-08T15:03:45.628Z,99.90
2023-03-08T15:08:48.546Z,1.00
2023-03-08T15:13:51.568Z,1.00
2023-03-08T15:18:53.908Z,1.00
2023-03-08T15:23:57.006Z,99.40
2023-03-08T15:29:03.345Z,1.00
2023-03-08T15:34:05.752Z,1.00
2023-03-08T15:39:12.159Z,1.00
2023-03-08T15:44:14.481Z,99.90
2023-03-08T15:49:16.796Z,99.90
2023-03-08T15:54:19.191Z,99.90
2023-03-08T15:59:23.456Z,1.00
2023-03-08T16:04:25.835Z,1.00
2023-03-08T16:09:28.139Z,1.00
2023-03-08T16:14:30.517Z,1.00
2023-03-08T16:19:34.301Z,99.90
2023-03-08T16:24:36.674Z,1.00
2023-03-08T16:29:39.063Z,1.00
2023-03-08T16:34:41.405Z,1.00
2023-03-08T16:39:43.855Z,1.00
2023-03-08T16:44:50.840Z,1.00
2023-03-08T16:49:53.364Z,1.00
2023-03-08T16:54:56.768Z,1.00
2023-03-08T16:59:59.165Z,1.00
2023-03-08T17:05:01.458Z,1.00
2023-03-08T17:10:04.924Z,1.00
2023-03-08T17:15:07.959Z,1.00
2023-03-08T17:20:10.951Z,1.00
2023-03-08T17:25:13.340Z,1.00
2023-03-08T17:30:16.125Z,1.00
2023-03-08T17:35:18.598Z,1.00
2023-03-08T17:40:21.065Z,1.00
2023-03-08T17:45:23.482Z,1.00
2023-03-08T17:50:25.793Z,1.00
2023-03-08T17:55:28.407Z,1.00
2023-03-08T18:00:30.836Z,1.00
2023-03-08T18:05:33.146Z,1.00
2023-03-08T18:10:35.440Z,6.50
2023-03-08T18:15:37.806Z,21.80
2023-03-08T18:20:40.199Z,34.20
2023-03-08T18:25:42.523Z,50.00
2023-03-08T18:30:44.879Z,70.70
2023-03-08T18:35:56.009Z,83.90
2023-03-08T18:40:58.480Z,90.90
2023-03-08T18:46:00.835Z,93.90
2023-03-08T18:51:03.346Z,96.60
2023-03-08T18:56:06.148Z,99.40
2023-03-08T19:01:14.220Z,99.90
2023-03-08T19:06:17.188Z,99.90
2023-03-08T19:11:21.979Z,99.90
2023-03-08T19:16:30.205Z,99.90
2023-03-08T19:21:35.593Z,99.90
2023-03-08T19:26:39.664Z,99.90
2023-03-08T19:31:45.004Z,99.90
2023-03-08T19:36:48.578Z,99.90
2023-03-08T19:41:53.186Z,99.90
2023-03-08T19:46:55.955Z,99.90
2023-03-08T19:52:01.798Z,99.90
2023-03-08T19:57:04.750Z,99.90
2023-03-08T20:02:09.178Z,99.90
2023-03-08T20:07:11.554Z,99.90
2023-03-08T20:12:13.860Z,99.90
2023-03-08T20:17:16.260Z,99.90
2023-03-08T20:22:18.572Z,99.90
2023-03-08T20:27:20.894Z,99.90
2023-03-08T20:32:23.332Z,99.90
2023-03-08T20:37:25.759Z,99.90
2023-03-08T20:42:28.110Z,99.90
2023-03-08T20:47:30.525Z,99.90
2023-03-08T20:52:32.874Z,99.90
2023-03-08T20:57:35.171Z,99.90
2023-03-08T21:02:37.834Z,99.90
2023-03-08T21:07:40.354Z,99.90
2023-03-08T21:12:42.721Z,99.90
2023-03-08T21:17:45.037Z,99.90
2023-03-08T21:22:47.456Z,99.90
2023-03-08T21:27:49.799Z,99.90
2023-03-08T21:32:52.208Z,99.90
2023-03-08T21:37:54.596Z,99.90
2023-03-08T21:42:56.990Z,99.90
2023-03-08T21:47:59.733Z,99.90
2023-03-08T21:53:02.030Z,99.90
2023-03-08T21:58:04.346Z,99.90
2023-03-08T22:03:06.796Z,99.90
2023-03-08T22:08:09.335Z,99.90
2023-03-08T22:13:11.672Z,99.90
2023-03-08T22:18:14.002Z,99.90
2023-03-08T22:23:16.302Z,99.90
2023-03-08T22:28:19.314Z,99.90
2023-03-08T22:33:21.708Z,99.90
2023-03-08T22:38:24.019Z,99.90
2023-03-08T22:43:27.469Z,99.90
2023-03-08T22:48:29.776Z,99.90
2023-03-08T22:53:32.114Z,99.90
2023-03-08T22:58:34.628Z,99.90
2023-03-08T23:03:36.947Z,99.90
2023-03-08T23:08:39.472Z,99.90
2023-03-08T23:13:42.304Z,99.90
2023-03-08T23:18:48.132Z,99.90
2023-03-08T23:30:14.733Z,99.90
2023-03-08T23:35:17.456Z,99.90
2023-03-08T23:40:20.051Z,99.90
2023-03-08T23:45:22.752Z,99.90
2023-03-08T23:50:25.164Z,99.90
2023-03-08T23:55:27.535Z,99.90
